Time;durP1;ratioP1;P1;durP2;ratioP2;P2;SDS_P1;SDS_P2;PMS_P1;PMS_P2;Temp;Humidity;BMP_temperature;BMP_pressure;BME280_temperature;BME280_humidity;BME280_pressure;Samples;Min_cycle;Max_cycle;Signal;HPM_P1;HPM_P2
2023/05/22 00:02:04;;;;;;;8.60;3.20;;;;;;;;;;4996229;28;20022;-75
2023/05/22 00:04:30;;;;;;;12.68;3.67;;;;;;;;;;4996305;28;20042;-75
2023/05/22 00:06:56;;;;;;;11.07;3.95;;;;;;;;;;4994165;28;20422;-77
2023/05/22 00:09:23;;;;;;;11.65;3.83;;;;;;;;;;4995826;28;20034;-75
2023/05/22 00:11:48;;;;;;;5.68;3.15;;;;;;;;;;4996331;28;20038;-75
2023/05/22 00:14:14;;;;;;;6.88;3.90;;;;;;;;;;4996087;28;20054;-76
2023/05/22 00:16:40;;;;;;;11.77;4.25;;;;;;;;;;4996014;28;20037;-75
2023/05/22 00:19:11;;;;;;;6.57;3.28;;;;;;;;;;4996172;28;20538;-76
2023/05/22 00:21:36;;;;;;;6.13;3.28;;;;;;;;;;4995971;28;20390;-75
2023/05/22 00:24:02;;;;;;;10.63;3.58;;;;;;;;;;4995911;28;20027;-76
2023/05/22 00:26:28;;;;;;;9.23;3.60;;;;;;;;;;4995972;28;20041;-75
2023/05/22 00:28:53;;;;;;;7.20;3.17;;;;;;;;;;4995895;28;20042;-75
2023/05/22 00:31:18;;;;;;;6.30;3.20;;;;;;;;;;4994550;28;20313;-77
2023/05/22 00:33:44;;;;;;;6.35;3.30;;;;;;;;;;4995554;28;20030;-75
2023/05/22 00:36:09;;;;;;;12.20;3.00;;;;;;;;;;4994811;28;20053;-76
2023/05/22 00:38:36;;;;;;;8.20;3.20;;;;;;;;;;4995704;28;20447;-76
2023/05/22 00:41:03;;;;;;;10.82;3.58;;;;;;;;;;4995666;28;20038;-75
2023/05/22 00:43:29;;;;;;;11.90;3.80;;;;;;;;;;4994167;28;20031;-76
2023/05/22 00:45:54;;;;;;;7.15;3.30;;;;;;;;;;4994417;28;20045;-76
2023/05/22 00:48:21;;;;;;;7.97;3.55;;;;;;;;;;4994363;28;20041;-75
2023/05/22 00:50:47;;;;;;;6.45;3.10;;;;;;;;;;4994250;28;20042;-75
2023/05/22 00:53:13;;;;;;;8.68;2.83;;;;;;;;;;4994230;28;20022;-75
2023/05/22 00:55:39;;;;;;;10.95;3.35;;;;;;;;;;4995439;28;20495;-75
2023/05/22 00:58:08;;;;;;;9.77;3.88;;;;;;;;;;4995321;28;20046;-76
2023/05/22 01:00:36;;;;;;;6.35;3.47;;;;;;;;;;4994827;28;20485;-76
2023/05/22 01:03:06;;;;;;;5.22;3.28;;;;;;;;;;4993998;28;20026;-77
2023/05/22 01:05:32;;;;;;;5.28;2.83;;;;;;;;;;4995332;28;20038;-76
2023/05/22 01:07:58;;;;;;;8.20;3.25;;;;;;;;;;4995092;28;20041;-76
2023/05/22 01:10:25;;;;;;;8.70;3.53;;;;;;;;;;4995249;28;20474;-75
2023/05/22 01:13:12;;;;;;;9.88;3.53;;;;;;;;;;4994101;28;20050;-76
2023/05/22 01:16:08;;;;;;;6.10;2.92;;;;;;;;;;4994917;28;20026;-76
2023/05/22 01:18:47;;;;;;;6.28;3.22;;;;;;;;;;4981574;28;20104;-75
2023/05/22 01:21:44;;;;;;;11.23;2.97;;;;;;;;;;4994681;28;20478;-76
2023/05/22 01:24:36;;;;;;;4.68;3.10;;;;;;;;;;4993777;28;20100;-76
2023/05/22 01:27:16;;;;;;;10.13;3.38;;;;;;;;;;4984353;28;20031;-76
2023/05/22 01:30:17;;;;;;;4.82;2.97;;;;;;;;;;4994558;28;20042;-76
2023/05/22 01:32:43;;;;;;;8.90;2.88;;;;;;;;;;4993764;28;20049;-76
2023/05/22 01:35:10;;;;;;;5.75;3.28;;;;;;;;;;4982450;28;20129;-76
2023/05/22 01:37:36;;;;;;;15.50;2.90;;;;;;;;;;4994484;28;20032;-75
2023/05/22 01:40:02;;;;;;;4.38;2.88;;;;;;;;;;4993016;28;20490;-75
2023/05/22 01:42:27;;;;;;;5.22;2.80;;;;;;;;;;4993425;28;20034;-75
2023/05/22 01:44:53;;;;;;;7.63;3.50;;;;;;;;;;4994367;28;20034;-75
2023/05/22 01:47:18;;;;;;;9.65;3.70;;;;;;;;;;4993860;28;20053;-76
2023/05/22 01:49:46;;;;;;;7.72;2.90;;;;;;;;;;4993227;28;20042;-75
2023/05/22 01:52:23;;;;;;;5.07;3.20;;;;;;;;;;4993154;28;20026;-75
2023/05/22 01:54:57;;;;;;;5.65;2.85;;;;;;;;;;4993012;28;20038;-76
2023/05/22 01:57:41;;;;;;;5.72;2.90;;;;;;;;;;4979872;28;20453;-76
2023/05/22 02:00:08;;;;;;;9.25;3.00;;;;;;;;;;4992817;28;20038;-76
2023/05/22 02:02:38;;;;;;;6.20;2.70;;;;;;;;;;4992594;28;20042;-76
2023/05/22 02:05:04;;;;;;;6.18;3.33;;;;;;;;;;4992625;28;20487;-76
2023/05/22 02:07:32;;;;;;;8.40;2.90;;;;;;;;;;4992733;28;20038;-76
2023/05/22 02:09:58;;;;;;;8.57;3.03;;;;;;;;;;4993956;28;20026;-75
2023/05/22 02:12:23;;;;;;;13.13;3.40;;;;;;;;;;4992990;28;20046;-76
2023/05/22 02:14:49;;;;;;;5.75;3.42;;;;;;;;;;4992560;28;20049;-75
2023/05/22 02:17:16;;;;;;;13.05;3.00;;;;;;;;;;4994018;28;20023;-75
2023/05/22 02:19:43;;;;;;;6.30;2.85;;;;;;;;;;4993707;28;20038;-75
2023/05/22 02:22:12;;;;;;;7.00;3.15;;;;;;;;;;4993895;28;20042;-75
2023/05/22 02:24:38;;;;;;;9.70;2.85;;;;;;;;;;4982319;28;20025;-75
2023/05/22 02:27:04;;;;;;;6.47;3.10;;;;;;;;;;4991982;28;20124;-76
2023/05/22 02:29:29;;;;;;;8.77;3.20;;;;;;;;;;4993863;28;20069;-76
2023/05/22 02:31:55;;;;;;;9.20;2.88;;;;;;;;;;4993760;28;20035;-76
2023/05/22 02:34:20;;;;;;;7.13;3.28;;;;;;;;;;4992267;28;20517;-76
2023/05/22 02:36:46;;;;;;;6.57;3.15;;;;;;;;;;4993353;28;20117;-76
2023/05/22 02:39:12;;;;;;;9.73;2.78;;;;;;;;;;4993747;28;20030;-75
2023/05/22 02:41:37;;;;;;;8.30;2.97;;;;;;;;;;4993686;28;20041;-76
2023/05/22 02:44:03;;;;;;;5.63;3.00;;;;;;;;;;4993789;28;20117;-76
2023/05/22 02:46:28;;;;;;;5.78;3.28;;;;;;;;;;4993585;28;20073;-76
2023/05/22 02:48:54;;;;;;;6.00;3.13;;;;;;;;;;4993813;28;20093;-76
2023/05/22 02:51:19;;;;;;;6.70;2.95;;;;;;;;;;4991313;28;20112;-76
2023/05/22 02:53:44;;;;;;;9.13;3.40;;;;;;;;;;4993703;28;20065;-76
2023/05/22 02:56:10;;;;;;;10.32;3.15;;;;;;;;;;4993536;28;20057;-76
2023/05/22 02:58:36;;;;;;;7.88;2.97;;;;;;;;;;4993088;28;20126;-76
2023/05/22 03:01:02;;;;;;;5.15;2.53;;;;;;;;;;4993369;28;20104;-75
2023/05/22 03:03:30;;;;;;;6.88;2.80;;;;;;;;;;4993656;28;20538;-76
2023/05/22 03:05:57;;;;;;;9.70;3.50;;;;;;;;;;4992346;28;20068;-76
2023/05/22 03:08:23;;;;;;;8.85;3.28;;;;;;;;;;4995300;28;20026;-76
2023/05/22 03:10:49;;;;;;;8.07;3.20;;;;;;;;;;4997203;28;20041;-75
2023/05/22 03:13:14;;;;;;;6.57;3.00;;;;;;;;;;4997268;28;20030;-76
2023/05/22 03:15:40;;;;;;;6.20;3.05;;;;;;;;;;4995884;28;20066;-75
2023/05/22 03:18:05;;;;;;;5.13;2.97;;;;;;;;;;4997415;28;20542;-75
2023/05/22 03:20:31;;;;;;;6.40;3.22;;;;;;;;;;4997096;28;20042;-75
2023/05/22 03:22:56;;;;;;;6.53;3.05;;;;;;;;;;4997106;28;20025;-76
2023/05/22 03:25:22;;;;;;;5.95;3.00;;;;;;;;;;4997090;28;20065;-76
2023/05/22 03:27:47;;;;;;;5.20;2.72;;;;;;;;;;4996907;28;20080;-76
2023/05/22 03:30:13;;;;;;;3.92;2.53;;;;;;;;;;4996936;28;20030;-75
2023/05/22 03:32:39;;;;;;;5.68;2.90;;;;;;;;;;4996478;28;20065;-76
2023/05/22 03:35:05;;;;;;;6.25;2.72;;;;;;;;;;4996962;28;20039;-76
2023/05/22 03:37:31;;;;;;;5.88;3.30;;;;;;;;;;4996712;28;20557;-75
2023/05/22 03:39:56;;;;;;;6.40;2.83;;;;;;;;;;4996879;28;20075;-75
2023/05/22 03:42:21;;;;;;;5.85;2.65;;;;;;;;;;4996571;28;20042;-75
2023/05/22 03:44:48;;;;;;;12.50;3.38;;;;;;;;;;4996474;28;20026;-75
2023/05/22 03:47:14;;;;;;;6.60;3.45;;;;;;;;;;4996597;28;20165;-75
2023/05/22 03:49:39;;;;;;;5.28;2.72;;;;;;;;;;4996501;28;20193;-76
2023/05/22 03:52:05;;;;;;;7.53;2.92;;;;;;;;;;4995395;28;20037;-76
2023/05/22 03:54:31;;;;;;;7.90;2.70;;;;;;;;;;4996425;28;20500;-76
2023/05/22 03:56:56;;;;;;;5.45;2.72;;;;;;;;;;4996379;28;20035;-76
2023/05/22 03:59:22;;;;;;;6.22;2.58;;;;;;;;;;4996136;28;20054;-75
2023/05/22 04:01:47;;;;;;;5.60;2.80;;;;;;;;;;4994014;28;20160;-75
2023/05/22 04:04:13;;;;;;;9.88;2.83;;;;;;;;;;4994111;28;20065;-76
2023/05/22 04:06:41;;;;;;;9.13;2.72;;;;;;;;;;4996298;28;20481;-76
2023/05/22 04:09:10;;;;;;;5.68;2.88;;;;;;;;;;4996283;28;20038;-75
2023/05/22 04:11:35;;;;;;;10.10;3.17;;;;;;;;;;4995045;28;20066;-76
2023/05/22 04:14:04;;;;;;;4.60;2.50;;;;;;;;;;4996477;28;20064;-76
2023/05/22 04:16:30;;;;;;;6.63;3.50;;;;;;;;;;4996004;28;20117;-75
2023/05/22 04:18:56;;;;;;;5.82;3.30;;;;;;;;;;4994535;28;20129;-76
2023/05/22 04:21:23;;;;;;;7.47;2.97;;;;;;;;;;4994287;28;20038;-77
2023/05/22 04:23:48;;;;;;;8.38;3.45;;;;;;;;;;4983229;28;20431;-76
2023/05/22 04:26:16;;;;;;;8.07;3.17;;;;;;;;;;4993045;28;20034;-76
2023/05/22 04:28:44;;;;;;;5.55;2.60;;;;;;;;;;4995952;28;20093;-75
2023/05/22 04:31:11;;;;;;;6.47;3.70;;;;;;;;;;4995692;28;20074;-76
2023/05/22 04:33:37;;;;;;;6.65;3.35;;;;;;;;;;4994661;28;20038;-76
2023/05/22 04:36:03;;;;;;;11.23;3.70;;;;;;;;;;4994800;28;20046;-76
2023/05/22 04:38:29;;;;;;;6.03;3.00;;;;;;;;;;4994521;28;20034;-76
2023/05/22 04:40:55;;;;;;;11.25;4.43;;;;;;;;;;4995476;28;20153;-76
2023/05/22 04:43:22;;;;;;;6.65;3.38;;;;;;;;;;4995494;28;20034;-75
2023/05/22 04:45:47;;;;;;;4.65;2.63;;;;;;;;;;4995721;28;20143;-75
2023/05/22 04:48:14;;;;;;;6.30;3.70;;;;;;;;;;4983012;28;20518;-76
2023/05/22 04:50:39;;;;;;;9.68;3.65;;;;;;;;;;4995305;28;20018;-76
2023/05/22 04:53:05;;;;;;;10.05;3.55;;;;;;;;;;4995231;28;20176;-76
2023/05/22 04:55:32;;;;;;;5.32;3.60;;;;;;;;;;4995356;28;20053;-75
2023/05/22 04:57:58;;;;;;;7.28;4.50;;;;;;;;;;4995464;28;20046;-76
2023/05/22 05:00:25;;;;;;;5.68;3.40;;;;;;;;;;4995385;28;20056;-77
2023/05/22 05:02:51;;;;;;;8.18;4.28;;;;;;;;;;4994730;28;20042;-76
2023/05/22 05:05:16;;;;;;;7.85;3.72;;;;;;;;;;4995319;28;20053;-76
2023/05/22 05:07:42;;;;;;;6.93;3.63;;;;;;;;;;4995004;28;20042;-76
2023/05/22 05:10:08;;;;;;;8.82;3.80;;;;;;;;;;4993916;28;20121;-76
2023/05/22 05:12:33;;;;;;;9.32;4.63;;;;;;;;;;4993707;28;20413;-76
2023/05/22 05:14:59;;;;;;;9.40;3.42;;;;;;;;;;4995113;28;20050;-76
2023/05/22 05:17:24;;;;;;;5.45;3.22;;;;;;;;;;4993757;28;20040;-75
2023/05/22 05:19:50;;;;;;;6.28;3.03;;;;;;;;;;4994762;28;20045;-76
2023/05/22 05:22:15;;;;;;;18.15;3.72;;;;;;;;;;4994750;28;20041;-76
2023/05/22 05:24:40;;;;;;;8.68;3.53;;;;;;;;;;4994922;28;20038;-75
2023/05/22 05:27:06;;;;;;;6.60;3.30;;;;;;;;;;4992729;28;20484;-77
2023/05/22 05:29:31;;;;;;;4.93;3.00;;;;;;;;;;4994735;28;20053;-76
2023/05/22 05:31:56;;;;;;;5.10;3.08;;;;;;;;;;4993866;28;20042;-76
2023/05/22 05:34:22;;;;;;;5.85;2.70;;;;;;;;;;4994649;28;20026;-77
2023/05/22 05:36:47;;;;;;;4.50;2.60;;;;;;;;;;4994567;28;20372;-76
2023/05/22 05:39:12;;;;;;;6.72;2.80;;;;;;;;;;4993404;28;20113;-76
2023/05/22 05:41:38;;;;;;;5.53;3.17;;;;;;;;;;4994567;28;20469;-76
2023/05/22 05:44:03;;;;;;;6.82;3.00;;;;;;;;;;4994461;28;20096;-76
2023/05/22 05:46:29;;;;;;;5.22;2.70;;;;;;;;;;4994431;28;20038;-77
2023/05/22 05:48:54;;;;;;;4.85;2.60;;;;;;;;;;4994475;28;20385;-76
2023/05/22 05:51:20;;;;;;;5.47;3.03;;;;;;;;;;4991991;28;20046;-77
2023/05/22 05:53:46;;;;;;;5.15;2.72;;;;;;;;;;4994353;28;20061;-77
2023/05/22 05:56:11;;;;;;;4.82;2.80;;;;;;;;;;4994263;28;20117;-77
2023/05/22 05:58:37;;;;;;;5.40;2.70;;;;;;;;;;4994262;28;20138;-76
2023/05/22 06:01:02;;;;;;;5.20;2.60;;;;;;;;;;4992534;28;20037;-76
2023/05/22 06:03:28;;;;;;;5.43;3.08;;;;;;;;;;4994223;28;20042;-77
2023/05/22 06:05:54;;;;;;;6.55;3.05;;;;;;;;;;4994173;28;20046;-77
2023/05/22 06:08:20;;;;;;;5.15;2.65;;;;;;;;;;4993176;28;20483;-76
2023/05/22 06:10:46;;;;;;;6.63;2.50;;;;;;;;;;4994066;28;20038;-76
2023/05/22 06:13:12;;;;;;;4.60;2.15;;;;;;;;;;4994260;28;20536;-77
2023/05/22 06:15:37;;;;;;;4.55;2.55;;;;;;;;;;4992961;28;20034;-78
2023/05/22 06:18:03;;;;;;;3.65;2.47;;;;;;;;;;4992900;28;20486;-77
2023/05/22 06:20:29;;;;;;;5.07;2.15;;;;;;;;;;4993979;28;20085;-77
2023/05/22 06:22:55;;;;;;;3.72;2.33;;;;;;;;;;4993956;28;20463;-77
2023/05/22 06:25:22;;;;;;;3.67;2.17;;;;;;;;;;4993895;28;20042;-77
2023/05/22 06:27:48;;;;;;;5.20;2.10;;;;;;;;;;4993897;28;20118;-76
2023/05/22 06:30:14;;;;;;;3.88;2.50;;;;;;;;;;4993861;28;20125;-77
2023/05/22 06:32:39;;;;;;;5.00;2.60;;;;;;;;;;4993848;28;20034;-77
2023/05/22 06:35:05;;;;;;;7.35;3.00;;;;;;;;;;4994105;28;20046;-76
2023/05/22 06:37:34;;;;;;;4.97;2.40;;;;;;;;;;4992721;28;20045;-77
2023/05/22 06:39:59;;;;;;;5.45;2.72;;;;;;;;;;4993521;28;21673;-77
2023/05/22 06:42:25;;;;;;;5.05;2.60;;;;;;;;;;4992389;28;20073;-76
2023/05/22 06:44:51;;;;;;;5.22;2.78;;;;;;;;;;4997747;28;20042;-77
2023/05/22 06:47:16;;;;;;;5.72;3.17;;;;;;;;;;4997952;28;20125;-78
2023/05/22 06:49:42;;;;;;;6.50;2.97;;;;;;;;;;4997793;28;20072;-77
2023/05/22 06:52:07;;;;;;;5.85;3.00;;;;;;;;;;4997863;28;20042;-77
2023/05/22 06:54:32;;;;;;;5.03;2.88;;;;;;;;;;4997338;28;20081;-77
2023/05/22 06:56:58;;;;;;;6.70;3.35;;;;;;;;;;4997697;28;20121;-77
2023/05/22 06:59:23;;;;;;;8.55;4.28;;;;;;;;;;4997617;28;20097;-76
2023/05/22 07:01:49;;;;;;;5.43;3.25;;;;;;;;;;4997527;28;20122;-77
2023/05/22 07:04:14;;;;;;;8.10;3.65;;;;;;;;;;4997419;28;20034;-78
2023/05/22 07:06:40;;;;;;;9.68;4.05;;;;;;;;;;4997342;28;20085;-76
2023/05/22 07:09:06;;;;;;;7.13;3.88;;;;;;;;;;4996330;28;20042;-77
2023/05/22 07:11:31;;;;;;;9.45;4.00;;;;;;;;;;4996969;28;20546;-77
2023/05/22 07:13:57;;;;;;;6.60;3.72;;;;;;;;;;4997187;28;20142;-74
2023/05/22 07:16:22;;;;;;;5.25;3.10;;;;;;;;;;4997398;28;20057;-74
2023/05/22 07:18:48;;;;;;;8.77;4.43;;;;;;;;;;4997034;28;20069;-74
2023/05/22 07:21:13;;;;;;;6.22;3.72;;;;;;;;;;4996163;28;20116;-75
2023/05/22 07:23:39;;;;;;;9.00;3.70;;;;;;;;;;4995642;28;20041;-74
2023/05/22 07:26:06;;;;;;;11.18;4.60;;;;;;;;;;4997019;28;20041;-75
2023/05/22 07:28:31;;;;;;;9.90;3.65;;;;;;;;;;4995785;28;20050;-74
2023/05/22 07:30:57;;;;;;;10.60;4.68;;;;;;;;;;4995815;28;20034;-74
2023/05/22 07:33:22;;;;;;;6.47;3.72;;;;;;;;;;4996799;28;20128;-75
2023/05/22 07:35:47;;;;;;;7.95;3.72;;;;;;;;;;4997063;28;20130;-74
2023/05/22 07:38:13;;;;;;;8.10;3.78;;;;;;;;;;4995907;28;20046;-75
2023/05/22 07:40:38;;;;;;;8.73;3.83;;;;;;;;;;4996865;28;20417;-74
2023/05/22 07:43:04;;;;;;;8.90;4.07;;;;;;;;;;4996716;28;20036;-74
2023/05/22 07:45:29;;;;;;;6.78;3.90;;;;;;;;;;4996846;28;20026;-74
2023/05/22 07:47:57;;;;;;;9.75;4.22;;;;;;;;;;4996610;28;20494;-74
2023/05/22 07:50:25;;;;;;;7.00;4.20;;;;;;;;;;4996778;28;20042;-75
2023/05/22 07:52:51;;;;;;;7.82;3.92;;;;;;;;;;4993878;28;20026;-75
2023/05/22 07:55:16;;;;;;;6.88;3.88;;;;;;;;;;4996494;28;20394;-75
2023/05/22 07:57:42;;;;;;;8.02;4.03;;;;;;;;;;4995991;28;20463;-75
2023/05/22 08:00:08;;;;;;;6.22;3.60;;;;;;;;;;4996185;28;20038;-74
2023/05/22 08:02:35;;;;;;;5.05;3.65;;;;;;;;;;4975735;28;20394;-75
2023/05/22 08:05:03;;;;;;;7.65;3.63;;;;;;;;;;4988133;28;20054;-74
2023/05/22 08:07:28;;;;;;;7.68;3.72;;;;;;;;;;4995301;28;20030;-75
2023/05/22 08:09:53;;;;;;;9.70;4.07;;;;;;;;;;4996222;28;20049;-74
2023/05/22 08:12:19;;;;;;;8.70;3.80;;;;;;;;;;4996204;28;20383;-75
2023/05/22 08:14:44;;;;;;;7.03;3.80;;;;;;;;;;4994838;28;20109;-74
2023/05/22 08:17:10;;;;;;;7.57;3.40;;;;;;;;;;4995976;28;20486;-75
2023/05/22 08:19:35;;;;;;;9.60;3.85;;;;;;;;;;4996050;28;20085;-75
2023/05/22 08:22:01;;;;;;;8.40;3.75;;;;;;;;;;4995883;28;20439;-74
2023/05/22 08:24:27;;;;;;;8.80;3.85;;;;;;;;;;4996038;28;20045;-75
2023/05/22 08:26:57;;;;;;;5.70;3.40;;;;;;;;;;4995879;28;20068;-74
2023/05/22 08:29:22;;;;;;;8.60;3.80;;;;;;;;;;4995568;28;20038;-74
2023/05/22 08:31:48;;;;;;;11.63;3.70;;;;;;;;;;4995984;28;20042;-74
2023/05/22 08:34:13;;;;;;;7.07;3.78;;;;;;;;;;4995777;28;20114;-74
2023/05/22 08:36:39;;;;;;;7.40;3.58;;;;;;;;;;4995929;28;20026;-74
2023/05/22 08:39:06;;;;;;;7.35;3.53;;;;;;;;;;4995645;28;20449;-74
2023/05/22 08:41:31;;;;;;;6.65;3.55;;;;;;;;;;4995540;28;20053;-74
2023/05/22 08:43:57;;;;;;;6.82;3.05;;;;;;;;;;4994235;28;20038;-74
2023/05/22 08:46:24;;;;;;;5.63;3.33;;;;;;;;;;4994352;28;20050;-74
2023/05/22 08:48:50;;;;;;;6.78;3.47;;;;;;;;;;4994466;28;20411;-74
2023/05/22 08:51:18;;;;;;;7.68;3.47;;;;;;;;;;4994229;28;20042;-75
2023/05/22 08:53:45;;;;;;;7.10;2.95;;;;;;;;;;4994110;28;20069;-74
2023/05/22 08:56:10;;;;;;;5.93;3.17;;;;;;;;;;4994239;28;20042;-75
2023/05/22 08:58:36;;;;;;;5.60;3.10;;;;;;;;;;4995500;28;20054;-74
2023/05/22 09:01:02;;;;;;;5.65;3.13;;;;;;;;;;4995246;28;20066;-74
2023/05/22 09:03:31;;;;;;;6.00;3.22;;;;;;;;;;4994159;28;20038;-74
2023/05/22 09:06:00;;;;;;;7.70;3.72;;;;;;;;;;4994740;28;20048;-74
2023/05/22 09:08:27;;;;;;;6.47;3.20;;;;;;;;;;4994031;28;20042;-74
2023/05/22 09:10:54;;;;;;;7.30;3.58;;;;;;;;;;4991788;28;20042;-73
2023/05/22 09:13:25;;;;;;;6.10;3.28;;;;;;;;;;4982484;28;20499;-73
2023/05/22 09:15:51;;;;;;;5.88;3.13;;;;;;;;;;4993713;28;20045;-74
2023/05/22 09:18:16;;;;;;;6.80;3.35;;;;;;;;;;4995154;28;20402;-74
2023/05/22 09:20:41;;;;;;;4.15;2.70;;;;;;;;;;4994742;28;20454;-73
2023/05/22 09:23:16;;;;;;;5.90;3.33;;;;;;;;;;4993126;28;20042;-74
2023/05/22 09:25:42;;;;;;;5.93;3.10;;;;;;;;;;4994802;28;20038;-73
2023/05/22 09:28:08;;;;;;;6.15;2.90;;;;;;;;;;4993937;28;20093;-73
2023/05/22 09:30:35;;;;;;;8.15;3.35;;;;;;;;;;4994658;28;20426;-73
2023/05/22 09:33:00;;;;;;;5.63;3.25;;;;;;;;;;4994358;28;20045;-73
2023/05/22 09:35:28;;;;;;;5.20;3.13;;;;;;;;;;4994694;28;20046;-73
2023/05/22 09:37:54;;;;;;;9.52;3.72;;;;;;;;;;4994598;28;20031;-73
2023/05/22 09:40:20;;;;;;;7.15;3.42;;;;;;;;;;4994632;28;20177;-73
2023/05/22 09:42:46;;;;;;;10.18;3.20;;;;;;;;;;4993178;28;20408;-74
2023/05/22 09:45:12;;;;;;;4.95;3.20;;;;;;;;;;4994519;28;20037;-74
2023/05/22 09:47:37;;;;;;;6.30;3.10;;;;;;;;;;4994608;28;20066;-74
2023/05/22 09:50:06;;;;;;;3.83;2.70;;;;;;;;;;4993120;28;20093;-73
2023/05/22 09:52:33;;;;;;;7.53;3.25;;;;;;;;;;4994559;28;20034;-73
2023/05/22 09:55:02;;;;;;;5.57;3.10;;;;;;;;;;4993204;28;20042;-74
2023/05/22 09:57:31;;;;;;;7.00;3.13;;;;;;;;;;4993828;28;20489;-74
2023/05/22 09:59:57;;;;;;;7.18;3.45;;;;;;;;;;4993864;28;20521;-74
2023/05/22 10:02:24;;;;;;;4.90;3.05;;;;;;;;;;4992897;28;20034;-74
2023/05/22 10:04:51;;;;;;;6.00;2.88;;;;;;;;;;4994341;28;20062;-73
2023/05/22 10:07:32;;;;;;;5.47;3.00;;;;;;;;;;4994110;28;20030;-74
2023/05/22 10:10:06;;;;;;;4.47;2.53;;;;;;;;;;4992320;28;20388;-74
2023/05/22 10:12:32;;;;;;;6.68;2.85;;;;;;;;;;4992724;28;20121;-73
2023/05/22 10:15:00;;;;;;;7.45;2.95;;;;;;;;;;4994007;28;20081;-74
2023/05/22 10:17:25;;;;;;;4.70;2.60;;;;;;;;;;4991858;28;20030;-74
2023/05/22 10:19:52;;;;;;;9.65;3.35;;;;;;;;;;4992935;28;20470;-74
2023/05/22 10:22:20;;;;;;;7.53;2.88;;;;;;;;;;4993930;28;20038;-73
2023/05/22 10:24:47;;;;;;;7.30;2.55;;;;;;;;;;4992690;28;20121;-73
2023/05/22 10:27:13;;;;;;;4.47;2.53;;;;;;;;;;4994044;28;20095;-74
2023/05/22 10:30:10;;;;;;;7.03;2.80;;;;;;;;;;4992627;28;20034;-74
2023/05/22 10:33:07;;;;;;;5.63;2.53;;;;;;;;;;4991932;28;20552;-74
2023/05/22 10:35:58;;;;;;;3.90;2.00;;;;;;;;;;4978215;28;20046;-73
2023/05/22 10:38:41;;;;;;;3.28;1.90;;;;;;;;;;4988826;28;20037;-74
2023/05/22 10:41:07;;;;;;;6.05;2.08;;;;;;;;;;4993646;28;20475;-74
2023/05/22 10:43:37;;;;;;;4.28;2.05;;;;;;;;;;4993843;28;20038;-73
2023/05/22 10:46:04;;;;;;;3.55;1.90;;;;;;;;;;4986677;28;20034;-73
2023/05/22 10:48:39;;;;;;;7.22;2.42;;;;;;;;;;4984119;28;20038;-74
2023/05/22 10:51:08;;;;;;;3.55;1.75;;;;;;;;;;4992451;28;20036;-76
2023/05/22 10:53:34;;;;;;;4.20;1.92;;;;;;;;;;4993568;28;20035;-73
2023/05/22 10:56:09;;;;;;;3.75;1.85;;;;;;;;;;4992509;28;20107;-76
2023/05/22 10:58:37;;;;;;;6.13;2.40;;;;;;;;;;4986567;28;20069;-77
2023/05/22 11:01:13;;;;;;;5.35;2.20;;;;;;;;;;4993262;28;20089;-76
2023/05/22 11:03:57;;;;;;;5.32;2.08;;;;;;;;;;4992506;28;20092;-77
2023/05/22 11:06:38;;;;;;;7.97;2.88;;;;;;;;;;4982727;28;20030;-77
2023/05/22 11:09:28;;;;;;;6.95;2.22;;;;;;;;;;4982310;28;20049;-76
2023/05/22 11:12:23;;;;;;;4.25;2.30;;;;;;;;;;4992995;28;20496;-76
2023/05/22 11:14:58;;;;;;;4.38;2.13;;;;;;;;;;4987718;28;20050;-76
2023/05/22 11:17:29;;;;;;;4.80;1.60;;;;;;;;;;4992225;28;20030;-76
2023/05/22 11:20:01;;;;;;;4.65;1.90;;;;;;;;;;4992304;28;20104;-76
2023/05/22 11:22:37;;;;;;;4.75;2.15;;;;;;;;;;4993249;28;20029;-77
2023/05/22 11:25:25;;;;;;;3.72;1.90;;;;;;;;;;4989088;28;20038;-77
2023/05/22 11:27:50;;;;;;;3.75;2.05;;;;;;;;;;4992709;28;20101;-77
2023/05/22 11:30:16;;;;;;;6.93;2.10;;;;;;;;;;4995088;28;20046;-75
2023/05/22 11:32:43;;;;;;;8.27;2.55;;;;;;;;;;4996603;28;20026;-76
2023/05/22 11:35:19;;;;;;;7.35;2.22;;;;;;;;;;4995984;28;20125;-76
2023/05/22 11:37:45;;;;;;;4.80;2.80;;;;;;;;;;4995530;28;20053;-76
2023/05/22 11:40:14;;;;;;;6.35;2.75;;;;;;;;;;4996867;28;20030;-76
2023/05/22 11:42:39;;;;;;;6.95;2.88;;;;;;;;;;4996867;28;20041;-75
2023/05/22 11:45:05;;;;;;;7.43;3.47;;;;;;;;;;4995193;28;20030;-75
2023/05/22 11:47:31;;;;;;;8.05;2.45;;;;;;;;;;4996578;28;20046;-77
2023/05/22 11:49:57;;;;;;;7.10;2.75;;;;;;;;;;4995514;28;20069;-76
2023/05/22 11:52:23;;;;;;;8.05;3.05;;;;;;;;;;4990992;28;20077;-76
2023/05/22 11:54:49;;;;;;;8.77;2.70;;;;;;;;;;4979475;28;20062;-77
2023/05/22 11:57:15;;;;;;;6.80;3.00;;;;;;;;;;4983210;28;20042;-77
2023/05/22 11:59:46;;;;;;;5.60;2.78;;;;;;;;;;4994741;28;20375;-76
2023/05/22 12:02:13;;;;;;;6.03;3.05;;;;;;;;;;4989819;28;20356;-76
2023/05/22 12:04:39;;;;;;;6.25;2.95;;;;;;;;;;4995609;28;20058;-76
2023/05/22 12:07:05;;;;;;;8.90;3.20;;;;;;;;;;4994265;28;20113;-75
2023/05/22 12:09:30;;;;;;;7.32;3.30;;;;;;;;;;4986441;28;20122;-77
2023/05/22 12:11:56;;;;;;;6.68;3.05;;;;;;;;;;4986223;28;20106;-76
2023/05/22 12:14:32;;;;;;;7.80;3.35;;;;;;;;;;4990880;28;20043;-76
2023/05/22 12:16:58;;;;;;;4.88;2.90;;;;;;;;;;4986078;28;20034;-76
2023/05/22 12:19:24;;;;;;;9.98;3.90;;;;;;;;;;4982928;28;20105;-76
2023/05/22 12:21:50;;;;;;;11.90;3.88;;;;;;;;;;4989045;28;20034;-76
2023/05/22 12:24:20;;;;;;;6.38;3.58;;;;;;;;;;4987529;28;20073;-76
2023/05/22 12:26:50;;;;;;;8.85;3.28;;;;;;;;;;4989325;28;20045;-76
2023/05/22 12:29:15;;;;;;;5.97;3.63;;;;;;;;;;4990846;28;20505;-76
2023/05/22 12:31:43;;;;;;;5.55;3.00;;;;;;;;;;4994002;28;20042;-77
2023/05/22 12:34:08;;;;;;;10.00;3.45;;;;;;;;;;4995236;28;20121;-75
2023/05/22 12:36:34;;;;;;;5.05;3.35;;;;;;;;;;4995263;28;20114;-76
2023/05/22 12:39:00;;;;;;;7.50;3.60;;;;;;;;;;4986395;28;20035;-76
2023/05/22 12:41:25;;;;;;;8.85;3.83;;;;;;;;;;4991391;28;20034;-76
2023/05/22 12:43:51;;;;;;;7.75;3.20;;;;;;;;;;4991324;28;20125;-76
2023/05/22 12:46:16;;;;;;;10.65;3.17;;;;;;;;;;4990162;28;20372;-76
2023/05/22 12:48:41;;;;;;;12.07;4.15;;;;;;;;;;4991844;28;20061;-77
2023/05/22 12:51:08;;;;;;;5.10;3.28;;;;;;;;;;4986720;28;20066;-76
2023/05/22 12:53:34;;;;;;;7.97;3.80;;;;;;;;;;4986183;28;20034;-77
2023/05/22 12:55:59;;;;;;;7.55;3.92;;;;;;;;;;4992666;28;20029;-76
2023/05/22 12:58:25;;;;;;;8.20;3.30;;;;;;;;;;4985490;28;20062;-77
2023/05/22 13:00:50;;;;;;;9.23;3.70;;;;;;;;;;4980049;28;20047;-76
2023/05/22 13:03:16;;;;;;;8.05;3.40;;;;;;;;;;4993779;28;20348;-76
2023/05/22 13:05:41;;;;;;;8.13;3.65;;;;;;;;;;4995363;28;20121;-77
2023/05/22 13:08:06;;;;;;;6.30;3.47;;;;;;;;;;4995149;28;20046;-76
2023/05/22 13:10:32;;;;;;;7.47;3.30;;;;;;;;;;4995080;28;20050;-76
2023/05/22 13:12:57;;;;;;;7.45;3.22;;;;;;;;;;4995153;28;20042;-76
2023/05/22 13:15:23;;;;;;;7.50;3.72;;;;;;;;;;4995070;28;20042;-76
2023/05/22 13:17:48;;;;;;;8.35;3.60;;;;;;;;;;4994901;28;20455;-76
2023/05/22 13:20:13;;;;;;;10.93;3.22;;;;;;;;;;4994954;28;20073;-76
2023/05/22 13:22:40;;;;;;;8.75;2.80;;;;;;;;;;4994921;28;20177;-76
2023/05/22 13:25:06;;;;;;;7.40;3.00;;;;;;;;;;4993024;28;20077;-77
2023/05/22 13:27:31;;;;;;;7.10;2.90;;;;;;;;;;4994817;28;20042;-76
2023/05/22 13:29:57;;;;;;;6.65;3.00;;;;;;;;;;4994887;28;20034;-76
2023/05/22 13:32:22;;;;;;;6.60;3.13;;;;;;;;;;4994836;28;20532;-76
2023/05/22 13:34:47;;;;;;;8.43;3.67;;;;;;;;;;4992654;28;20034;-76
2023/05/22 13:37:13;;;;;;;6.05;3.20;;;;;;;;;;4994903;28;20053;-76
2023/05/22 13:39:38;;;;;;;6.93;2.88;;;;;;;;;;4994614;28;20033;-76
2023/05/22 13:42:04;;;;;;;6.03;3.10;;;;;;;;;;4994598;28;20482;-75
2023/05/22 13:44:29;;;;;;;7.07;3.13;;;;;;;;;;4994511;28;20065;-76
2023/05/22 13:46:55;;;;;;;6.80;3.47;;;;;;;;;;4993296;28;20120;-76
2023/05/22 13:49:20;;;;;;;5.38;2.55;;;;;;;;;;4994611;28;20126;-76
2023/05/22 13:51:46;;;;;;;7.00;3.17;;;;;;;;;;4993120;28;20089;-77
2023/05/22 13:54:11;;;;;;;7.72;2.95;;;;;;;;;;4994397;28;20040;-75
2023/05/22 13:56:36;;;;;;;5.45;2.40;;;;;;;;;;4994273;28;20084;-76
2023/05/22 13:59:03;;;;;;;5.35;2.80;;;;;;;;;;4994311;28;20489;-76
2023/05/22 14:01:29;;;;;;;8.27;3.08;;;;;;;;;;4993994;28;20030;-76
2023/05/22 14:03:54;;;;;;;5.97;2.88;;;;;;;;;;4993173;28;20141;-75
2023/05/22 14:06:20;;;;;;;5.65;2.60;;;;;;;;;;4993145;28;20038;-75
2023/05/22 14:08:45;;;;;;;4.78;2.30;;;;;;;;;;4994147;28;20030;-75
2023/05/22 14:11:11;;;;;;;5.70;2.60;;;;;;;;;;4992984;28;20038;-75
2023/05/22 14:13:36;;;;;;;4.70;2.80;;;;;;;;;;4993905;28;20042;-75
2023/05/22 14:16:01;;;;;;;9.35;3.47;;;;;;;;;;4993968;28;20390;-76
2023/05/22 14:18:27;;;;;;;5.22;2.63;;;;;;;;;;4992912;28;20072;-77
2023/05/22 14:20:52;;;;;;;6.38;2.72;;;;;;;;;;4992608;28;20041;-75
2023/05/22 14:23:17;;;;;;;6.55;2.38;;;;;;;;;;4994274;28;20116;-76
2023/05/22 14:25:43;;;;;;;7.40;2.30;;;;;;;;;;4993924;28;20049;-76
2023/05/22 14:28:12;;;;;;;5.85;2.80;;;;;;;;;;4994097;28;20088;-75
2023/05/22 14:30:38;;;;;;;5.82;2.65;;;;;;;;;;4992522;28;20030;-75
2023/05/22 14:33:03;;;;;;;5.43;2.45;;;;;;;;;;4991674;28;20039;-76
2023/05/22 14:35:29;;;;;;;5.72;2.60;;;;;;;;;;4993499;28;20038;-76
2023/05/22 14:37:55;;;;;;;4.30;2.30;;;;;;;;;;4993763;28;20035;-76
2023/05/22 14:40:20;;;;;;;7.78;2.65;;;;;;;;;;4993888;28;20387;-75
2023/05/22 14:42:45;;;;;;;4.85;2.17;;;;;;;;;;4993704;28;20116;-76
2023/05/22 14:45:11;;;;;;;5.40;2.50;;;;;;;;;;4993915;28;20038;-75